Aidablu — IBWX — position and weather

sailwx.info

Track history (hours):
 
Tides and Currents Weather Stations Pressure Air Temp Water Temp Dewpoint Dewpoint Depression Visibility Wind Speed Wind Dir Waves Ship Positions

Aidablu

Last reported at 2014-Oct-02 02:34 UTC. Time now 2014-Oct-02 02:38 UTC.
Position N 43°14' E 010°09'.

Length 252 m; draft 7.3 m.

Type: Ship. MMSI: 247282500.

Date/timePositionNaut miles runAvg speedWind from/ knotsBaromVisibWave heightAir tempDewpointWater temp
2014-Oct-02 02:34N 43°14' E 010°09'3413.6
2014-Oct-02 00:03N 42°40' E 010°08'1215.1
2014-Oct-01 23:17N 42°33' E 010°21'1214.9
2014-Oct-01 22:30N 42°25' E 010°33'262 5.1
2014-Sep-29 19:09N 38°44' E 013°36'813.8
2014-Sep-29 18:33N 38°36' E 013°33'1413.8
2014-Sep-29 17:33N 38°22' E 013°30'1413.5
2014-Sep-29 16:33N 38°09' E 013°26'3 3.3
2014-Sep-29 15:33N 38°08' E 013°22'0 0.0
2014-Sep-29 14:33N 38°08' E 013°22'0 0.0
2014-Sep-29 13:32N 38°08' E 013°22'0 0.0
2014-Sep-29 12:32N 38°08' E 013°22'0 0.0
2014-Sep-29 11:32N 38°08' E 013°22'0 0.0
2014-Sep-29 10:31N 38°08' E 013°22'0 0.0
2014-Sep-29 09:31N 38°08' E 013°22'0 0.0
2014-Sep-29 08:33N 38°08' E 013°22'0 0.0
2014-Sep-29 07:33N 38°08' E 013°22'19513.9
2014-Sep-28 17:33N 39°02' E 009°22'1414.3
2014-Sep-28 16:33N 39°10' E 009°07'3 2.8
2014-Sep-28 15:33N 39°12' E 009°06'0 0.0
2014-Sep-28 14:32N 39°12' E 009°06'0 0.0
2014-Sep-28 13:32N 39°12' E 009°06'0 0.0
2014-Sep-28 12:31N 39°12' E 009°06'0 0.0
2014-Sep-28 11:31N 39°12' E 009°06'0 0.0
2014-Sep-28 10:33N 39°12' E 009°06'0 0.0
2014-Sep-28 09:33N 39°12' E 009°06'0 0.0
2014-Sep-28 08:33N 39°12' E 009°06'0 0.0
2014-Sep-28 07:32N 39°12' E 009°06'0 0.0
2014-Sep-28 06:34N 39°12' E 009°06'0 0.0
2014-Sep-28 05:34N 39°12' E 009°06'5 4.9
2014-Sep-28 04:34N 39°08' E 009°07'1212.1
2014-Sep-28 03:33N 38°56' E 009°04'1313.1
2014-Sep-28 02:33N 38°47' E 008°51'22 9.2
2014-Sep-28 00:11N 38°47' E 008°23'209 9.2
2014-Sep-27 01:22N 39°09' E 003°55'1114.0
2014-Sep-27 00:34N 39°11' E 003°41'1413.7
2014-Sep-26 23:33N 39°12' E 003°23'1414.0
2014-Sep-26 22:33N 39°14' E 003°05'1414.1
2014-Sep-26 21:33N 39°19' E 002°48'1313.2
2014-Sep-26 20:33N 39°30' E 002°40'3 2.8
2014-Sep-26 19:33N 39°33' E 002°38'0 0.0
2014-Sep-26 18:33N 39°33' E 002°38'0 0.0
2014-Sep-26 17:33N 39°33' E 002°38'0 0.0
2014-Sep-26 16:32N 39°33' E 002°38'0 0.0
2014-Sep-26 15:32N 39°33' E 002°38'0 0.0
2014-Sep-26 14:31N 39°33' E 002°38'0 0.0
2014-Sep-26 13:31N 39°33' E 002°38'0 0.0
2014-Sep-26 12:33N 39°33' E 002°38'0 0.0
2014-Sep-26 11:33N 39°33' E 002°38'0 0.0
2014-Sep-26 10:30N 39°33' E 002°38'0 0.0
2014-Sep-26 09:32N 39°33' E 002°38'0 0.0
2014-Sep-26 08:32N 39°33' E 002°38'0 0.0
2014-Sep-26 07:31N 39°33' E 002°38'0 0.0
2014-Sep-26 06:31N 39°33' E 002°38'0 0.0
2014-Sep-26 05:33N 39°33' E 002°38'0 0.0
2014-Sep-26 04:33N 39°33' E 002°38'0 0.0
2014-Sep-26 03:33N 39°33' E 002°38'0 0.1
2014-Sep-26 02:33N 39°33' E 002°38'6 5.6
2014-Sep-26 01:33N 39°28' E 002°41'8 7.6
2014-Sep-26 00:33N 39°21' E 002°44'8 7.9
2014-Sep-25 23:33N 39°17' E 002°53'9 9.1
2014-Sep-25 22:33N 39°14' E 003°04'1313.4
2014-Sep-25 21:33N 39°11' E 003°21'1313.0
2014-Sep-25 20:33N 39°09' E 003°38'49113.1
2014-Sep-24 07:08N 36°56' E 013°38'813.3
2014-Sep-24 06:33N 36°50' E 013°43'68 4.0
2014-Sep-23 13:33N 35°54' E 014°31'6 6.2
2014-Sep-23 12:33N 35°57' E 014°38'4 4.0
2014-Sep-23 11:33N 36°01' E 014°37'4 3.7
2014-Sep-23 10:33N 36°03' E 014°33'1212.0
2014-Sep-23 09:33N 36°11' E 014°44'7 7.5
2014-Sep-23 08:33N 36°17' E 014°50'7 7.1
2014-Sep-23 07:33N 36°22' E 014°55'5 5.1
2014-Sep-23 06:33N 36°27' E 014°59'114 8.7
2014-Sep-22 17:31N 38°12' E 014°07'1616.7
2014-Sep-22 16:33N 38°11' E 013°47'1616.1
2014-Sep-22 15:34N 38°08' E 013°26'4 3.5
2014-Sep-22 14:33N 38°08' E 013°22'0 0.0
2014-Sep-22 13:33N 38°08' E 013°22'0 0.0
2014-Sep-22 12:32N 38°08' E 013°22'0 0.0
2014-Sep-22 11:32N 38°08' E 013°22'0 0.0
2014-Sep-22 10:31N 38°08' E 013°22'0 0.0
2014-Sep-22 09:33N 38°08' E 013°22'0 0.0
2014-Sep-22 08:33N 38°08' E 013°22'0 0.0
2014-Sep-22 07:33N 38°08' E 013°22'0 0.0
2014-Sep-22 06:33N 38°08' E 013°22'4 3.8
2014-Sep-22 05:33N 38°11' E 013°24'1312.6
2014-Sep-22 04:33N 38°20' E 013°11'1515.2
2014-Sep-22 03:33N 38°23' E 012°53'  
Track history (hours):
 
Tides and Currents Weather Stations Pressure Air Temp Water Temp Dewpoint Dewpoint Depression Visibility Wind Speed Wind Dir Waves Ship Positions

Aidablu

Last reported at 2014-Oct-02 02:34 UTC. Time now 2014-Oct-02 02:38 UTC.
Position N 43°14' E 010°09'.

Length 252 m; draft 7.3 m.

Type: Ship. MMSI: 247282500.

Date/timePositionNaut miles runAvg speedWind from/ knotsBaromVisibWave heightAir tempDewpointWater temp
2014-Oct-02 02:34N 43°14' E 010°09'3413.6
2014-Oct-02 00:03N 42°40' E 010°08'1215.1
2014-Oct-01 23:17N 42°33' E 010°21'1214.9
2014-Oct-01 22:30N 42°25' E 010°33'262 5.1
2014-Sep-29 19:09N 38°44' E 013°36'813.8
2014-Sep-29 18:33N 38°36' E 013°33'1413.8
2014-Sep-29 17:33N 38°22' E 013°30'1413.5
2014-Sep-29 16:33N 38°09' E 013°26'3 3.3
2014-Sep-29 15:33N 38°08' E 013°22'0 0.0
2014-Sep-29 14:33N 38°08' E 013°22'0 0.0
2014-Sep-29 13:32N 38°08' E 013°22'0 0.0
2014-Sep-29 12:32N 38°08' E 013°22'0 0.0
2014-Sep-29 11:32N 38°08' E 013°22'0 0.0
2014-Sep-29 10:31N 38°08' E 013°22'0 0.0
2014-Sep-29 09:31N 38°08' E 013°22'0 0.0
2014-Sep-29 08:33N 38°08' E 013°22'0 0.0
2014-Sep-29 07:33N 38°08' E 013°22'19513.9
2014-Sep-28 17:33N 39°02' E 009°22'1414.3
2014-Sep-28 16:33N 39°10' E 009°07'3 2.8
2014-Sep-28 15:33N 39°12' E 009°06'0 0.0
2014-Sep-28 14:32N 39°12' E 009°06'0 0.0
2014-Sep-28 13:32N 39°12' E 009°06'0 0.0
2014-Sep-28 12:31N 39°12' E 009°06'0 0.0
2014-Sep-28 11:31N 39°12' E 009°06'0 0.0
2014-Sep-28 10:33N 39°12' E 009°06'0 0.0
2014-Sep-28 09:33N 39°12' E 009°06'0 0.0
2014-Sep-28 08:33N 39°12' E 009°06'0 0.0
2014-Sep-28 07:32N 39°12' E 009°06'0 0.0
2014-Sep-28 06:34N 39°12' E 009°06'0 0.0
2014-Sep-28 05:34N 39°12' E 009°06'5 4.9
2014-Sep-28 04:34N 39°08' E 009°07'1212.1
2014-Sep-28 03:33N 38°56' E 009°04'1313.1
2014-Sep-28 02:33N 38°47' E 008°51'22 9.2
2014-Sep-28 00:11N 38°47' E 008°23'209 9.2
2014-Sep-27 01:22N 39°09' E 003°55'1114.0
2014-Sep-27 00:34N 39°11' E 003°41'1413.7
2014-Sep-26 23:33N 39°12' E 003°23'1414.0
2014-Sep-26 22:33N 39°14' E 003°05'1414.1
2014-Sep-26 21:33N 39°19' E 002°48'1313.2
2014-Sep-26 20:33N 39°30' E 002°40'3 2.8
2014-Sep-26 19:33N 39°33' E 002°38'0 0.0
2014-Sep-26 18:33N 39°33' E 002°38'0 0.0
2014-Sep-26 17:33N 39°33' E 002°38'0 0.0
2014-Sep-26 16:32N 39°33' E 002°38'0 0.0
2014-Sep-26 15:32N 39°33' E 002°38'0 0.0
2014-Sep-26 14:31N 39°33' E 002°38'0 0.0
2014-Sep-26 13:31N 39°33' E 002°38'0 0.0
2014-Sep-26 12:33N 39°33' E 002°38'0 0.0
2014-Sep-26 11:33N 39°33' E 002°38'0 0.0
2014-Sep-26 10:30N 39°33' E 002°38'0 0.0
2014-Sep-26 09:32N 39°33' E 002°38'0 0.0
2014-Sep-26 08:32N 39°33' E 002°38'0 0.0
2014-Sep-26 07:31N 39°33' E 002°38'0 0.0
2014-Sep-26 06:31N 39°33' E 002°38'0 0.0
2014-Sep-26 05:33N 39°33' E 002°38'0 0.0
2014-Sep-26 04:33N 39°33' E 002°38'0 0.0
2014-Sep-26 03:33N 39°33' E 002°38'0 0.1
2014-Sep-26 02:33N 39°33' E 002°38'6 5.6
2014-Sep-26 01:33N 39°28' E 002°41'8 7.6
2014-Sep-26 00:33N 39°21' E 002°44'8 7.9
2014-Sep-25 23:33N 39°17' E 002°53'9 9.1
2014-Sep-25 22:33N 39°14' E 003°04'1313.4
2014-Sep-25 21:33N 39°11' E 003°21'1313.0
2014-Sep-25 20:33N 39°09' E 003°38'49113.1
2014-Sep-24 07:08N 36°56' E 013°38'813.3
2014-Sep-24 06:33N 36°50' E 013°43'68 4.0
2014-Sep-23 13:33N 35°54' E 014°31'6 6.2
2014-Sep-23 12:33N 35°57' E 014°38'4 4.0
2014-Sep-23 11:33N 36°01' E 014°37'4 3.7
2014-Sep-23 10:33N 36°03' E 014°33'1212.0
2014-Sep-23 09:33N 36°11' E 014°44'7 7.5
2014-Sep-23 08:33N 36°17' E 014°50'7 7.1
2014-Sep-23 07:33N 36°22' E 014°55'5 5.1
2014-Sep-23 06:33N 36°27' E 014°59'114 8.7
2014-Sep-22 17:31N 38°12' E 014°07'1616.7
2014-Sep-22 16:33N 38°11' E 013°47'1616.1
2014-Sep-22 15:34N 38°08' E 013°26'4 3.5
2014-Sep-22 14:33N 38°08' E 013°22'0 0.0
2014-Sep-22 13:33N 38°08' E 013°22'0 0.0
2014-Sep-22 12:32N 38°08' E 013°22'0 0.0
2014-Sep-22 11:32N 38°08' E 013°22'0 0.0
2014-Sep-22 10:31N 38°08' E 013°22'0 0.0
2014-Sep-22 09:33N 38°08' E 013°22'0 0.0
2014-Sep-22 08:33N 38°08' E 013°22'0 0.0
2014-Sep-22 07:33N 38°08' E 013°22'0 0.0
2014-Sep-22 06:33N 38°08' E 013°22'4 3.8
2014-Sep-22 05:33N 38°11' E 013°24'1312.6
2014-Sep-22 04:33N 38°20' E 013°11'1515.2
2014-Sep-22 03:33N 38°23' E 012°53'  

Dump ship's entire track history